Time;durP1;ratioP1;P1;durP2;ratioP2;P2;SDS_P1;SDS_P2;PMS_P1;PMS_P2;Temp;Humidity;BMP_temperature;BMP_pressure;BME280_temperature;BME280_humidity;BME280_pressure;Samples;Min_cycle;Max_cycle;Signal;HPM_P1;HPM_P2
2023/03/18 00:04:36;;;;;;;11.50;5.93;;;10.60;99.90;;;;;;6393485;22;20457;-84
2023/03/18 00:07:14;;;;;;;11.23;6.35;;;10.60;99.90;;;;;;6238261;22;20019;-95
2023/03/18 00:09:40;;;;;;;9.95;5.43;;;10.60;99.90;;;;;;6241385;23;20028;-96
2023/03/18 00:12:07;;;;;;;11.02;5.20;;;10.70;99.90;;;;;;6195135;22;20012;-88
2023/03/18 00:14:35;;;;;;;8.95;4.93;;;10.70;99.90;;;;;;6265228;22;20016;-96
2023/03/18 00:17:01;;;;;;;10.38;5.00;;;10.80;99.90;;;;;;6376026;22;20018;-93
2023/03/18 00:19:27;;;;;;;9.68;4.82;;;10.90;99.90;;;;;;6201250;22;20095;-95
2023/03/18 00:21:54;;;;;;;10.35;4.80;;;10.90;99.90;;;;;;6179879;22;20016;-96
2023/03/18 00:24:42;;;;;;;8.18;4.25;;;11.00;99.90;;;;;;6293274;22;20018;-86
2023/03/18 00:27:08;;;;;;;10.17;4.53;;;11.00;99.90;;;;;;6241247;22;20025;-88
2023/03/18 00:29:39;;;;;;;8.33;4.17;;;11.10;99.90;;;;;;6267012;22;20444;-87
2023/03/18 00:32:05;;;;;;;9.80;4.80;;;11.10;99.90;;;;;;6266124;22;20490;-87
2023/03/18 00:34:49;;;;;;;9.65;4.20;;;11.10;99.90;;;;;;6240479;22;20017;-89
2023/03/18 00:37:32;;;;;;;7.85;4.30;;;11.20;99.90;;;;;;6270029;22;20017;-87
2023/03/18 00:42:38;;;;;;;8.50;4.63;;;11.20;99.90;;;;;;6412215;22;20021;-93
2023/03/18 00:45:06;;;;;;;9.25;4.32;;;11.30;99.90;;;;;;6248791;22;20022;-95
2023/03/18 00:47:33;;;;;;;9.80;4.65;;;11.30;99.90;;;;;;6248321;22;20010;-94
2023/03/18 00:49:59;;;;;;;7.30;4.10;;;11.40;99.90;;;;;;6221140;22;20071;-95
2023/03/18 00:52:25;;;;;;;8.37;4.20;;;11.40;99.90;;;;;;6276661;22;20439;-95
2023/03/18 00:54:50;;;;;;;9.18;4.20;;;11.40;99.90;;;;;;6274558;22;20013;-89
2023/03/18 00:57:16;;;;;;;9.23;4.53;;;11.40;99.90;;;;;;6407912;22;20346;-89
2023/03/18 00:59:42;;;;;;;10.77;4.67;;;11.40;99.90;;;;;;6271871;22;20046;-93
2023/03/18 01:02:08;;;;;;;9.07;4.73;;;11.50;99.90;;;;;;6222189;22;20070;-96
2023/03/18 01:04:33;;;;;;;9.50;4.33;;;11.50;99.90;;;;;;6273316;22;20065;-91
2023/03/18 01:07:00;;;;;;;8.10;4.53;;;11.50;99.90;;;;;;6248520;22;20018;-96
2023/03/18 01:09:26;;;;;;;11.02;5.13;;;11.50;99.90;;;;;;6248481;22;20010;-94
2023/03/18 01:11:51;;;;;;;11.15;5.50;;;11.50;99.90;;;;;;6270739;22;20071;-91
2023/03/18 01:14:18;;;;;;;10.80;5.03;;;11.50;99.90;;;;;;6273574;22;20010;-91
2023/03/18 01:16:45;;;;;;;11.55;6.05;;;11.50;99.90;;;;;;6276455;22;20017;-93
2023/03/18 01:19:12;;;;;;;9.55;5.05;;;11.50;99.90;;;;;;6276681;22;19998;-95
2023/03/18 01:21:38;;;;;;;8.00;4.90;;;11.50;99.90;;;;;;6253042;22;20018;-92
2023/03/18 01:24:04;;;;;;;10.40;5.32;;;11.50;99.90;;;;;;6254197;22;20033;-96
2023/03/18 01:26:30;;;;;;;;;;;11.50;99.90;;;;;;6281865;22;20013;-93
2023/03/18 01:28:57;;;;;;;12.73;5.10;;;11.50;99.90;;;;;;6414329;22;19913;-88
2023/03/18 01:31:24;;;;;;;9.45;5.30;;;11.40;99.90;;;;;;6284743;22;20046;-88
2023/03/18 01:33:51;;;;;;;9.80;6.30;;;11.40;99.90;;;;;;6410241;22;20018;-96
2023/03/18 01:36:17;;;;;;;10.07;5.38;;;11.40;99.90;;;;;;6245717;22;20063;-96
2023/03/18 01:38:43;;;;;;;10.67;6.07;;;11.30;99.90;;;;;;6272898;22;20029;-89
2023/03/18 01:41:10;;;;;;;12.73;6.35;;;11.30;99.90;;;;;;6270060;22;20041;-94
2023/03/18 01:43:39;;;;;;;11.68;6.55;;;11.20;99.90;;;;;;6409663;22;20022;-90
2023/03/18 01:46:30;;;;;;;12.70;6.32;;;11.20;99.90;;;;;;6280538;22;20014;-89
2023/03/18 01:48:56;;;;;;;13.00;6.95;;;11.10;99.90;;;;;;6282581;22;20018;-96
2023/03/18 01:51:28;;;;;;;11.77;7.13;;;11.10;99.90;;;;;;6420643;22;20045;-89
2023/03/18 01:53:56;;;;;;;12.38;7.63;;;11.00;99.90;;;;;;6276433;22;20010;-89
2023/03/18 01:56:22;;;;;;;13.98;7.50;;;11.00;99.90;;;;;;6249488;22;20025;-95
2023/03/18 01:58:56;;;;;;;16.02;7.78;;;10.90;99.90;;;;;;6276387;22;20104;-91
2023/03/18 02:01:32;;;;;;;14.63;8.43;;;10.90;99.90;;;;;;6408954;22;20013;-88
2023/03/18 02:03:59;;;;;;;16.65;9.30;;;10.90;99.90;;;;;;6411680;22;20014;-91
2023/03/18 02:06:25;;;;;;;14.48;8.02;;;10.80;99.90;;;;;;6247040;22;20088;-94
2023/03/18 02:08:51;;;;;;;14.20;8.02;;;10.80;99.90;;;;;;6274078;22;20042;-90
2023/03/18 02:11:17;;;;;;;18.10;8.90;;;10.70;99.90;;;;;;6273457;22;20037;-92
2023/03/18 02:13:45;;;;;;;16.67;8.93;;;10.70;99.90;;;;;;6273713;22;20250;-90
2023/03/18 02:16:22;;;;;;;13.75;8.82;;;10.70;99.90;;;;;;6280072;22;19998;-89
2023/03/18 02:18:56;;;;;;;16.38;8.82;;;10.70;99.90;;;;;;6419993;22;20057;-91
2023/03/18 02:24:44;;;;;;;16.45;8.82;;;10.60;99.90;;;;;;6402500;22;20022;-87
2023/03/18 02:27:29;;;;;;;17.48;10.45;;;10.60;99.90;;;;;;6241770;22;20013;-87
2023/03/18 02:30:00;;;;;;;17.95;10.52;;;10.60;99.90;;;;;;6242948;22;20010;-87
2023/03/18 02:32:32;;;;;;;19.10;10.25;;;10.60;99.90;;;;;;6242775;22;20010;-86
2023/03/18 02:35:01;;;;;;;20.10;11.20;;;10.60;99.90;;;;;;6266707;22;20018;-88
2023/03/18 02:38:17;;;;;;;18.73;10.00;;;10.60;99.90;;;;;;6242019;22;20021;-87
2023/03/18 02:41:37;;;;;;;18.48;10.65;;;10.60;99.90;;;;;;6268029;22;20066;-88
2023/03/18 02:44:03;;;;;;;20.42;10.15;;;10.60;99.90;;;;;;6266982;22;20014;-87
2023/03/18 02:46:54;;;;;;;19.05;10.60;;;10.60;99.90;;;;;;6402859;22;20063;-86
2023/03/18 02:49:22;;;;;;;19.35;10.82;;;10.60;99.90;;;;;;6267207;22;20006;-88
2023/03/18 02:51:49;;;;;;;20.23;10.57;;;10.60;99.90;;;;;;6267329;22;20406;-86
2023/03/18 02:54:22;;;;;;;18.88;10.90;;;10.60;99.90;;;;;;6292825;22;20458;-87
2023/03/18 02:57:06;;;;;;;20.23;11.30;;;10.50;99.90;;;;;;6242623;22;20018;-88
2023/03/18 02:59:32;;;;;;;18.92;10.75;;;10.50;99.90;;;;;;6267006;22;20022;-90
2023/03/18 03:01:58;;;;;;;19.50;11.10;;;10.50;99.90;;;;;;6241509;22;20006;-89
2023/03/18 03:04:25;;;;;;;17.88;10.57;;;10.50;99.90;;;;;;6267113;22;20063;-87
2023/03/18 03:07:06;;;;;;;19.77;11.40;;;10.50;99.90;;;;;;6241436;22;20066;-92
2023/03/18 03:09:57;;;;;;;20.60;12.48;;;10.50;99.90;;;;;;6241971;22;20022;-87
2023/03/18 03:12:36;;;;;;;17.60;10.98;;;10.40;99.90;;;;;;6292355;22;20029;-87
2023/03/18 03:15:04;;;;;;;19.40;10.90;;;10.40;99.90;;;;;;6267627;22;20010;-87
2023/03/18 03:17:29;;;;;;;20.13;10.98;;;10.40;99.90;;;;;;6241533;22;20040;-86
2023/03/18 03:19:56;;;;;;;19.33;11.30;;;10.30;99.90;;;;;;6402624;22;20431;-88
2023/03/18 03:22:22;;;;;;;;;;;10.40;99.90;;;;;;6292390;22;20025;-87
2023/03/18 03:24:48;;;;;;;21.33;11.30;;;10.30;99.90;;;;;;6402606;22;19914;-87
2023/03/18 03:27:13;;;;;;;20.90;11.87;;;10.30;99.90;;;;;;6232563;22;20025;-89
2023/03/18 03:29:39;;;;;;;22.23;12.80;;;10.30;99.90;;;;;;6267240;22;20041;-93
2023/03/18 03:32:05;;;;;;;21.57;12.70;;;10.30;99.90;;;;;;6293025;22;20351;-92
2023/03/18 03:34:32;;;;;;;19.80;11.63;;;10.20;99.90;;;;;;6243054;22;20089;-90
2023/03/18 03:36:58;;;;;;;19.08;11.85;;;10.30;99.90;;;;;;6268410;22;20017;-88
2023/03/18 03:39:24;;;;;;;22.00;12.73;;;10.30;99.90;;;;;;6242264;22;20040;-89
2023/03/18 03:41:50;;;;;;;22.67;13.03;;;10.20;99.90;;;;;;6268323;22;20021;-88
2023/03/18 03:44:16;;;;;;;23.23;12.70;;;10.20;99.90;;;;;;6266843;22;20049;-88
2023/03/18 03:46:41;;;;;;;22.63;12.55;;;10.20;99.90;;;;;;6218409;22;20442;-92
2023/03/18 03:49:07;;;;;;;22.27;12.67;;;10.20;99.90;;;;;;6242262;22;20016;-88
2023/03/18 03:51:33;;;;;;;23.77;12.57;;;10.10;99.90;;;;;;6267148;22;20018;-89
2023/03/18 03:54:03;;;;;;;25.77;14.03;;;10.10;99.90;;;;;;6219173;22;20056;-88
2023/03/18 03:56:30;;;;;;;22.23;13.32;;;10.10;99.90;;;;;;6241701;22;20409;-92
2023/03/18 03:58:56;;;;;;;23.73;13.65;;;10.10;99.90;;;;;;6194301;22;20014;-92
2023/03/18 04:01:22;;;;;;;22.88;13.70;;;10.10;99.90;;;;;;6217254;22;20490;-90
2023/03/18 04:03:48;;;;;;;22.52;13.23;;;10.00;99.90;;;;;;6242226;22;20025;-89
2023/03/18 04:06:14;;;;;;;22.47;13.47;;;10.00;99.90;;;;;;6241444;22;20100;-88
2023/03/18 04:08:40;;;;;;;24.02;13.27;;;10.00;99.90;;;;;;6267113;22;20010;-91
2023/03/18 04:11:06;;;;;;;22.40;13.07;;;10.00;99.90;;;;;;6242324;22;20086;-93
2023/03/18 04:13:33;;;;;;;21.33;12.98;;;10.00;99.90;;;;;;6292592;22;20068;-89
2023/03/18 04:15:58;;;;;;;24.40;14.15;;;10.00;99.90;;;;;;6267072;22;20014;-88
2023/03/18 04:18:24;;;;;;;24.50;13.38;;;10.00;99.90;;;;;;6241975;22;20102;-89
2023/03/18 04:21:03;;;;;;;26.35;13.27;;;10.00;99.90;;;;;;6268654;22;20010;-90
2023/03/18 04:23:28;;;;;;;22.63;13.55;;;10.00;99.90;;;;;;6241834;22;20342;-90
2023/03/18 04:25:54;;;;;;;24.90;12.77;;;10.00;99.90;;;;;;6190759;22;20021;-88
2023/03/18 04:28:20;;;;;;;23.47;12.87;;;10.00;99.90;;;;;;6191603;22;20068;-91
2023/03/18 04:30:47;;;;;;;19.57;12.37;;;9.90;99.90;;;;;;6268017;22;20057;-91
2023/03/18 04:33:13;;;;;;;24.75;13.15;;;10.00;99.90;;;;;;6241653;22;20013;-88
2023/03/18 04:35:41;;;;;;;23.57;12.77;;;10.00;99.90;;;;;;6241644;22;20039;-89
2023/03/18 04:38:07;;;;;;;22.85;12.77;;;10.00;99.90;;;;;;6216702;22;20014;-91
2023/03/18 04:40:33;;;;;;;22.40;12.82;;;9.90;99.90;;;;;;6266692;22;20316;-88
2023/03/18 04:42:58;;;;;;;21.30;12.43;;;9.90;99.90;;;;;;6241715;22;20092;-89
2023/03/18 04:45:24;;;;;;;25.20;12.47;;;9.90;99.90;;;;;;6216430;22;20419;-88
2023/03/18 04:47:50;;;;;;;23.47;13.70;;;9.90;99.90;;;;;;6216571;22;20097;-87
2023/03/18 04:50:16;;;;;;;25.27;12.82;;;9.90;99.90;;;;;;6241559;22;20086;-91
2023/03/18 04:52:43;;;;;;;24.02;12.85;;;9.90;99.90;;;;;;6241669;22;20450;-92
2023/03/18 04:55:10;;;;;;;26.27;14.20;;;9.90;99.90;;;;;;6241438;22;20048;-89
2023/03/18 04:57:37;;;;;;;21.58;12.57;;;9.80;99.90;;;;;;6402221;22;20351;-89
2023/03/18 05:00:16;;;;;;;21.25;12.65;;;9.90;99.90;;;;;;6216441;22;20496;-88
2023/03/18 05:02:42;;;;;;;20.38;11.50;;;9.80;99.90;;;;;;6292289;22;20138;-91
2023/03/18 05:05:09;;;;;;;23.73;13.05;;;9.80;99.90;;;;;;6266699;22;20056;-87
2023/03/18 05:07:35;;;;;;;20.80;12.13;;;9.80;99.90;;;;;;6266431;22;20010;-88
2023/03/18 05:10:03;;;;;;;20.38;11.43;;;9.80;99.90;;;;;;6242392;22;20018;-91
2023/03/18 05:12:29;;;;;;;17.50;10.88;;;9.80;99.90;;;;;;6266255;22;20446;-87
2023/03/18 05:14:54;;;;;;;20.20;11.70;;;9.80;99.90;;;;;;6266589;22;20047;-92
2023/03/18 05:17:20;;;;;;;21.53;11.03;;;9.80;99.90;;;;;;6241046;22;20017;-89
2023/03/18 05:19:51;;;;;;;17.80;10.33;;;9.80;99.90;;;;;;6193039;22;20045;-91
2023/03/18 05:22:19;;;;;;;23.52;10.73;;;9.80;99.90;;;;;;6217577;22;20082;-87
2023/03/18 05:24:45;;;;;;;19.67;10.75;;;9.80;99.90;;;;;;6242786;22;20453;-91
2023/03/18 05:27:13;;;;;;;20.75;10.48;;;9.80;99.90;;;;;;6271564;22;20014;-90
2023/03/18 05:29:39;;;;;;;17.98;9.80;;;9.80;99.90;;;;;;6244065;22;20320;-93
2023/03/18 05:32:06;;;;;;;18.13;9.75;;;9.80;99.90;;;;;;6217248;22;20013;-90
2023/03/18 05:34:56;;;;;;;17.05;9.82;;;9.80;99.90;;;;;;6217932;22;20443;-91
2023/03/18 05:37:45;;;;;;;18.67;9.65;;;9.80;99.90;;;;;;6242404;22;20017;-91
2023/03/18 05:40:35;;;;;;;17.02;8.98;;;9.80;99.90;;;;;;6268482;22;20052;-93
2023/03/18 05:43:04;;;;;;;16.67;9.15;;;9.80;99.90;;;;;;6217547;22;20018;-88
2023/03/18 05:45:30;;;;;;;18.63;9.52;;;9.80;99.90;;;;;;6192309;22;20453;-88
2023/03/18 05:47:56;;;;;;;19.30;9.95;;;9.80;99.90;;;;;;6242743;22;20339;-89
2023/03/18 05:50:44;;;;;;;16.52;9.80;;;9.90;99.90;;;;;;6217849;22;20017;-90
2023/03/18 05:53:10;;;;;;;19.00;9.57;;;9.90;99.90;;;;;;6242956;22;20065;-91
2023/03/18 05:55:37;;;;;;;16.05;8.95;;;9.90;99.90;;;;;;6243018;22;20049;-90
2023/03/18 05:58:03;;;;;;;17.67;9.55;;;9.90;99.90;;;;;;6242485;22;20045;-91
2023/03/18 06:00:30;;;;;;;20.33;10.25;;;9.90;99.90;;;;;;6242717;22;20037;-93
2023/03/18 06:03:00;;;;;;;16.80;9.15;;;9.90;99.90;;;;;;6216829;22;20014;-90
2023/03/18 06:05:27;;;;;;;17.75;8.63;;;9.90;99.90;;;;;;6242646;22;20062;-90
2023/03/18 06:07:54;;;;;;;18.42;9.38;;;9.90;99.90;;;;;;6272823;22;20042;-91
2023/03/18 06:10:24;;;;;;;19.45;10.15;;;10.00;99.90;;;;;;6242340;22;20074;-89
2023/03/18 06:12:50;;;;;;;17.50;9.23;;;9.90;99.90;;;;;;6242886;22;20069;-90
2023/03/18 06:15:17;;;;;;;18.10;9.13;;;10.00;99.90;;;;;;6243602;22;20018;-93
2023/03/18 06:17:43;;;;;;;18.45;10.00;;;9.90;99.90;;;;;;6242953;22;20013;-91
2023/03/18 06:20:27;;;;;;;19.95;9.98;;;10.00;99.90;;;;;;6269786;22;20014;-93
2023/03/18 06:22:53;;;;;;;22.77;9.23;;;9.90;99.90;;;;;;6267773;22;20013;-93
2023/03/18 06:25:20;;;;;;;20.53;9.40;;;10.00;99.90;;;;;;6193017;22;20056;-90
2023/03/18 06:27:46;;;;;;;19.63;9.15;;;9.90;99.90;;;;;;6217454;22;20016;-92
2023/03/18 06:30:14;;;;;;;19.95;9.75;;;9.90;99.90;;;;;;6217838;22;20029;-92
2023/03/18 06:32:40;;;;;;;21.17;9.48;;;9.90;99.90;;;;;;6267710;22;20041;-93
2023/03/18 06:35:06;;;;;;;23.30;10.18;;;9.90;99.90;;;;;;6267214;22;20220;-92
2023/03/18 06:37:32;;;;;;;22.05;9.88;;;10.00;99.90;;;;;;6268063;22;20024;-93
2023/03/18 06:39:59;;;;;;;23.13;10.38;;;9.90;99.90;;;;;;6242358;22;20018;-90
2023/03/18 06:42:24;;;;;;;19.48;9.93;;;9.90;99.90;;;;;;6267723;22;20339;-90
2023/03/18 06:44:50;;;;;;;21.47;9.97;;;9.90;99.90;;;;;;6192938;22;20014;-90
2023/03/18 06:47:23;;;;;;;25.70;10.88;;;9.90;99.90;;;;;;6218464;22;20014;-91
2023/03/18 06:49:50;;;;;;;25.33;10.90;;;9.90;99.90;;;;;;6243023;22;20014;-91
2023/03/18 06:52:17;;;;;;;22.98;10.93;;;10.00;99.90;;;;;;6217109;22;20308;-92
2023/03/18 06:54:44;;;;;;;23.83;11.43;;;10.00;99.90;;;;;;6218057;22;20013;-90
2023/03/18 06:57:10;;;;;;;;;;;10.00;99.90;;;;;;6242905;22;20060;-91
2023/03/18 06:59:37;;;;;;;27.63;10.38;;;10.00;99.90;;;;;;6242345;22;19914;-92
2023/03/18 07:02:04;;;;;;;22.20;10.75;;;10.00;99.90;;;;;;6217401;22;20005;-89
2023/03/18 07:04:32;;;;;;;23.40;11.00;;;10.10;99.90;;;;;;6242343;22;20017;-90
2023/03/18 07:06:59;;;;;;;23.33;10.73;;;10.10;99.90;;;;;;6242602;22;20025;-90
2023/03/18 07:09:25;;;;;;;;;;;10.10;99.90;;;;;;6293519;22;20143;-93
2023/03/18 07:11:52;;;;;;;21.65;10.48;;;10.20;99.90;;;;;;6267556;22;19921;-93
2023/03/18 07:14:18;;;;;;;20.50;10.70;;;10.20;99.90;;;;;;6403281;22;20017;-90
2023/03/18 07:16:44;;;;;;;19.10;10.30;;;10.20;99.90;;;;;;6243130;22;20530;-92
2023/03/18 07:19:11;;;;;;;23.58;10.98;;;10.30;99.90;;;;;;6268536;22;20015;-91
2023/03/18 07:21:37;;;;;;;23.10;11.15;;;10.40;99.90;;;;;;6216841;22;20021;-93
2023/03/18 07:24:03;;;;;;;20.98;10.82;;;10.60;99.90;;;;;;6217202;22;20018;-91
2023/03/18 07:26:29;;;;;;;25.67;11.80;;;10.70;99.90;;;;;;6241887;22;20451;-91
2023/03/18 07:28:55;;;;;;;19.48;10.43;;;10.90;99.90;;;;;;6217192;22;20405;-93
2023/03/18 07:31:20;;;;;;;20.52;10.93;;;11.10;99.90;;;;;;6216785;22;20045;-92
2023/03/18 07:33:47;;;;;;;21.77;11.32;;;11.40;99.90;;;;;;6267410;22;20495;-90
2023/03/18 07:36:14;;;;;;;21.15;11.02;;;11.70;99.90;;;;;;6243017;22;20009;-93
2023/03/18 07:38:40;;;;;;;17.25;9.55;;;11.80;99.90;;;;;;6217021;22;20018;-91
2023/03/18 07:41:06;;;;;;;20.77;10.20;;;11.80;99.90;;;;;;6241210;22;20014;-90
2023/03/18 07:43:31;;;;;;;18.95;10.20;;;11.70;99.90;;;;;;6216584;22;20070;-91
2023/03/18 07:45:57;;;;;;;17.27;10.23;;;11.60;99.90;;;;;;6216933;22;20101;-94
2023/03/18 07:48:23;;;;;;;21.17;10.97;;;11.50;99.90;;;;;;6217468;22;20252;-90
2023/03/18 07:50:49;;;;;;;18.73;10.25;;;11.60;99.90;;;;;;6242080;22;20025;-92
2023/03/18 07:53:15;;;;;;;24.50;11.23;;;11.60;99.90;;;;;;6243237;22;20025;-91
2023/03/18 07:55:41;;;;;;;20.30;10.85;;;11.60;99.90;;;;;;6268310;22;20013;-90
2023/03/18 07:58:07;;;;;;;18.10;9.20;;;11.50;99.90;;;;;;6268645;22;20119;-91
2023/03/18 08:00:55;;;;;;;22.37;11.90;;;11.50;99.90;;;;;;6192056;22;20240;-89
2023/03/18 08:03:21;;;;;;;19.85;9.90;;;11.40;99.90;;;;;;6267219;22;20017;-88
2023/03/18 08:05:47;;;;;;;20.75;11.35;;;11.40;99.90;;;;;;6241832;22;20018;-89
2023/03/18 08:08:12;;;;;;;21.00;11.70;;;11.40;99.90;;;;;;6241955;22;20393;-90
2023/03/18 08:10:38;;;;;;;20.30;11.17;;;11.40;99.90;;;;;;6192105;22;20255;-89
2023/03/18 08:13:04;;;;;;;19.73;11.10;;;11.40;99.90;;;;;;6268046;22;20014;-89
2023/03/18 08:16:14;;;;;;;18.85;11.05;;;11.40;99.90;;;;;;6241829;22;20018;-88
2023/03/18 08:19:11;;;;;;;24.40;12.15;;;11.40;99.90;;;;;;6241451;22;20062;-87
2023/03/18 08:21:52;;;;;;;24.95;11.85;;;11.50;99.90;;;;;;6267221;22;20045;-87
2023/03/18 08:24:18;;;;;;;21.95;11.70;;;11.50;99.90;;;;;;6267627;22;20439;-86
2023/03/18 08:26:44;;;;;;;22.88;11.60;;;11.50;99.90;;;;;;6266689;22;20021;-89
2023/03/18 08:29:10;;;;;;;20.53;11.97;;;11.60;99.90;;;;;;6215056;22;20020;-85
2023/03/18 08:31:35;;;;;;;20.07;11.67;;;11.50;99.90;;;;;;6266858;22;20050;-87
2023/03/18 08:34:01;;;;;;;22.50;11.47;;;11.60;99.90;;;;;;6402470;22;20017;-93
2023/03/18 08:36:27;;;;;;;19.13;10.63;;;11.60;99.90;;;;;;6402408;22;20405;-86
2023/03/18 08:38:53;;;;;;;20.67;11.93;;;11.60;99.90;;;;;;6266736;22;20083;-87
2023/03/18 08:41:19;;;;;;;20.10;12.27;;;11.60;99.90;;;;;;6241245;22;20025;-86
2023/03/18 08:43:45;;;;;;;23.08;11.98;;;11.60;99.90;;;;;;6266746;22;20014;-87
2023/03/18 08:46:12;;;;;;;19.95;10.98;;;11.70;99.90;;;;;;6266573;22;20447;-87
2023/03/18 08:48:37;;;;;;;19.48;11.20;;;11.70;99.90;;;;;;6266412;22;20053;-86
2023/03/18 08:51:07;;;;;;;21.30;10.87;;;11.70;99.90;;;;;;6237884;22;20379;-87
2023/03/18 08:53:33;;;;;;;18.48;10.25;;;11.70;99.90;;;;;;6215695;23;20023;-95
2023/03/18 08:55:59;;;;;;;22.40;10.90;;;11.70;99.90;;;;;;6216515;23;20015;-86
2023/03/18 08:58:26;;;;;;;18.95;11.10;;;11.70;99.90;;;;;;6216788;23;20024;-86
2023/03/18 09:00:54;;;;;;;22.75;11.40;;;11.70;99.90;;;;;;6216673;23;20020;-94
2023/03/18 09:03:20;;;;;;;17.15;10.82;;;11.70;99.90;;;;;;6241462;23;20337;-85
2023/03/18 09:05:51;;;;;;;18.13;10.10;;;11.80;99.90;;;;;;6216480;23;20020;-86
2023/03/18 09:08:17;;;;;;;19.40;10.82;;;11.80;99.90;;;;;;6216720;23;20098;-87
2023/03/18 09:10:46;;;;;;;21.00;10.48;;;11.80;99.90;;;;;;6192167;22;20017;-87
2023/03/18 09:13:12;;;;;;;20.52;10.27;;;11.80;99.90;;;;;;6242957;23;20020;-88
2023/03/18 09:15:39;;;;;;;21.70;11.52;;;11.90;99.90;;;;;;6244199;22;20016;-89
2023/03/18 09:18:05;;;;;;;22.60;12.45;;;11.90;99.90;;;;;;6217115;23;20020;-89
2023/03/18 09:20:32;;;;;;;21.13;11.10;;;11.90;99.90;;;;;;6218024;22;20020;-87
2023/03/18 09:22:58;;;;;;;18.88;11.07;;;11.90;99.90;;;;;;6215866;23;20255;-89
2023/03/18 09:25:24;;;;;;;18.95;10.77;;;11.80;99.90;;;;;;6191492;23;20095;-90
2023/03/18 09:27:51;;;;;;;18.90;11.65;;;11.80;99.90;;;;;;6216387;23;20457;-89
2023/03/18 09:30:17;;;;;;;20.70;12.10;;;11.80;99.90;;;;;;6241114;23;20027;-89
2023/03/18 09:32:43;;;;;;;20.60;12.13;;;11.90;99.90;;;;;;6242728;22;20027;-90
2023/03/18 09:35:10;;;;;;;20.33;11.93;;;11.90;99.90;;;;;;6216107;23;20255;-89
2023/03/18 09:37:37;;;;;;;22.45;11.93;;;11.90;99.90;;;;;;6215972;23;20094;-89
2023/03/18 09:40:06;;;;;;;19.25;12.05;;;11.90;99.90;;;;;;6215950;23;20020;-89
2023/03/18 09:42:54;;;;;;;21.15;11.98;;;12.00;99.90;;;;;;6215854;23;20016;-90
2023/03/18 09:45:27;;;;;;;18.02;11.50;;;12.10;99.90;;;;;;6216188;23;20035;-92
2023/03/18 09:47:58;;;;;;;19.08;11.82;;;12.20;99.90;;;;;;6215509;23;20098;-89
2023/03/18 09:50:40;;;;;;;19.63;11.73;;;12.20;99.90;;;;;;6240704;23;20503;-90
2023/03/18 09:53:37;;;;;;;23.75;12.13;;;12.20;99.90;;;;;;6215534;23;20031;-90
2023/03/18 09:56:17;;;;;;;21.17;12.10;;;12.20;99.90;;;;;;6241206;23;20024;-90
2023/03/18 09:58:52;;;;;;;21.98;12.35;;;12.20;99.90;;;;;;6240889;23;20020;-89
2023/03/18 10:01:22;;;;;;;21.80;13.10;;;12.30;99.90;;;;;;6215684;22;20020;-88
2023/03/18 10:04:01;;;;;;;21.08;12.63;;;12.30;99.90;;;;;;6215874;23;20087;-89
2023/03/18 10:06:27;;;;;;;20.95;11.48;;;12.30;99.90;;;;;;6214895;23;20027;-87
2023/03/18 10:09:33;;;;;;;22.17;12.73;;;12.40;99.90;;;;;;6241086;23;20016;-91
2023/03/18 10:12:24;;;;;;;21.10;11.50;;;12.50;99.90;;;;;;6214581;22;20243;-88
2023/03/18 10:15:12;;;;;;;22.75;12.35;;;12.70;99.90;;;;;;6233826;23;20016;-90
2023/03/18 10:17:42;;;;;;;18.80;11.55;;;12.80;99.90;;;;;;6240655;23;20104;-89
2023/03/18 10:20:17;;;;;;;20.25;12.45;;;12.90;99.90;;;;;;6240815;23;20023;-89
2023/03/18 10:23:16;;;;;;;20.80;10.95;;;13.00;99.90;;;;;;6210276;22;20341;-89
2023/03/18 10:25:55;;;;;;;18.67;11.02;;;13.10;99.90;;;;;;6241247;23;20472;-88
2023/03/18 10:28:24;;;;;;;21.05;11.77;;;13.30;99.90;;;;;;6190966;23;20020;-90
2023/03/18 10:30:56;;;;;;;19.00;11.05;;;13.50;99.90;;;;;;6215459;23;20062;-89
2023/03/18 10:33:55;;;;;;;19.27;10.35;;;13.60;99.90;;;;;;6240614;22;20052;-89
2023/03/18 10:36:48;;;;;;;16.30;9.38;;;13.70;99.90;;;;;;6215555;23;20096;-88
2023/03/18 10:39:27;;;;;;;15.32;8.70;;;13.80;99.90;;;;;;6240652;23;20013;-88
2023/03/18 10:41:54;;;;;;;16.80;9.18;;;13.90;99.90;;;;;;6190300;23;20445;-91
2023/03/18 10:44:29;;;;;;;14.57;8.65;;;13.90;99.90;;;;;;6242194;23;20090;-89
2023/03/18 10:47:01;;;;;;;16.17;9.00;;;14.00;99.90;;;;;;6240621;23;20077;-89
2023/03/18 10:49:41;;;;;;;18.40;10.02;;;13.90;99.90;;;;;;6242236;22;20089;-87
2023/03/18 10:52:22;;;;;;;18.90;9.98;;;13.90;99.90;;;;;;6241632;22;20024;-88
2023/03/18 10:55:00;;;;;;;13.93;8.90;;;13.80;99.90;;;;;;6215577;23;20052;-89
2023/03/18 10:57:41;;;;;;;15.05;9.13;;;13.70;99.90;;;;;;6217198;22;20469;-89
2023/03/18 11:00:27;;;;;;;14.43;9.32;;;13.70;99.90;;;;;;6348811;22;20454;-86
2023/03/18 11:02:55;;;;;;;18.55;10.07;;;13.80;99.90;;;;;;6348644;22;20010;-87
2023/03/18 11:05:25;;;;;;;14.95;9.15;;;14.00;99.90;;;;;;6322783;22;20025;-89
2023/03/18 11:08:07;;;;;;;14.63;8.80;;;14.10;99.90;;;;;;6349201;22;20009;-89
2023/03/18 11:10:44;;;;;;;15.00;8.68;;;14.20;99.90;;;;;;6375812;22;20346;-88
2023/03/18 11:13:18;;;;;;;;;;;14.30;99.90;;;;;;6348892;22;20017;-93
2023/03/18 11:15:51;;;;;;;16.88;9.05;;;14.30;99.90;;;;;;6374455;22;19972;-88
2023/03/18 11:18:23;;;;;;;15.10;9.20;;;14.30;99.90;;;;;;6348622;22;20017;-88
2023/03/18 11:20:59;;;;;;;14.75;8.82;;;14.30;99.90;;;;;;6401457;22;20432;-88
2023/03/18 11:23:55;;;;;;;14.88;9.02;;;14.20;99.90;;;;;;6402710;22;20092;-89
2023/03/18 11:26:28;;;;;;;13.07;8.23;;;14.10;99.90;;;;;;6348742;22;20037;-93
2023/03/18 11:29:19;;;;;;;14.93;8.95;;;14.00;99.90;;;;;;6374245;22;20381;-87
2023/03/18 11:32:00;;;;;;;16.38;8.77;;;14.00;99.90;;;;;;6401651;22;20014;-87
2023/03/18 11:34:31;;;;;;;14.82;9.07;;;14.00;99.90;;;;;;6374645;22;20010;-89
2023/03/18 11:37:05;;;;;;;15.63;9.00;;;14.00;99.90;;;;;;6402443;22;20079;-86
2023/03/18 11:39:36;;;;;;;17.83;9.20;;;14.00;99.90;;;;;;6402423;22;20018;-89
2023/03/18 11:42:15;;;;;;;15.82;9.73;;;14.00;99.90;;;;;;6401915;22;20014;-86
2023/03/18 11:44:41;;;;;;;14.63;9.02;;;13.90;99.90;;;;;;6373421;22;20010;-89
2023/03/18 11:47:16;;;;;;;19.40;9.88;;;13.90;99.90;;;;;;6401535;22;20009;-87
2023/03/18 11:49:42;;;;;;;15.18;9.18;;;13.90;99.90;;;;;;6374146;22;20039;-86
2023/03/18 11:52:26;;;;;;;;;;;13.80;99.90;;;;;;6346313;22;20052;-86
2023/03/18 11:55:11;;;;;;;16.60;8.25;;;13.80;99.90;;;;;;6373620;22;20247;-87
2023/03/18 11:58:22;;;;;;;15.18;8.18;;;13.90;99.90;;;;;;6402562;22;20048;-86
2023/03/18 12:01:17;;;;;;;14.98;7.90;;;13.90;99.90;;;;;;6301085;22;20018;-87
2023/03/18 12:04:04;;;;;;;15.48;7.57;;;13.90;99.90;;;;;;6402080;22;20078;-88
2023/03/18 12:06:37;;;;;;;13.43;7.32;;;13.90;99.90;;;;;;6402682;22;20024;-87
2023/03/18 12:09:26;;;;;;;14.27;8.52;;;13.90;99.90;;;;;;6402448;22;20392;-87
2023/03/18 12:12:03;;;;;;;16.85;9.10;;;13.90;99.90;;;;;;6402344;22;20014;-87
2023/03/18 12:14:56;;;;;;;15.07;8.68;;;13.90;99.90;;;;;;6402686;22;20021;-89
2023/03/18 12:17:52;;;;;;;15.00;8.95;;;13.90;99.90;;;;;;6374460;22;20025;-86
2023/03/18 12:20:39;;;;;;;16.05;8.98;;;13.90;99.90;;;;;;6402552;22;20017;-87
2023/03/18 12:23:13;;;;;;;15.20;8.43;;;13.90;99.90;;;;;;6401053;22;20010;-85
2023/03/18 12:25:57;;;;;;;14.45;8.48;;;14.00;99.90;;;;;;6374363;22;20014;-88
2023/03/18 12:28:47;;;;;;;16.42;9.20;;;14.10;99.90;;;;;;6373703;22;20014;-88
2023/03/18 12:31:27;;;;;;;14.55;8.52;;;14.50;99.90;;;;;;6345842;22;20490;-86
2023/03/18 12:34:01;;;;;;;15.00;8.00;;;14.70;99.90;;;;;;6346469;22;20380;-89
2023/03/18 12:36:34;;;;;;;14.52;8.13;;;14.80;99.90;;;;;;6347458;22;20081;-88
2023/03/18 12:39:18;;;;;;;13.80;7.85;;;14.80;99.90;;;;;;6348072;22;20045;-87
2023/03/18 12:41:53;;;;;;;13.32;7.90;;;14.90;99.90;;;;;;6348077;22;20025;-86
2023/03/18 12:48:21;;;;;;;10.25;5.75;;;15.10;99.90;;;;;;6402821;22;20010;-92
2023/03/18 12:50:55;;;;;;;10.60;6.28;;;15.40;99.90;;;;;;6348362;22;20091;-86
2023/03/18 12:53:33;;;;;;;10.88;6.32;;;15.40;99.90;;;;;;6401939;22;20014;-86
2023/03/18 12:56:19;;;;;;;13.05;7.15;;;15.60;99.90;;;;;;6373858;22;20435;-86
2023/03/18 12:58:56;;;;;;;12.00;7.32;;;15.60;99.90;;;;;;6373714;22;20049;-90
2023/03/18 13:01:33;;;;;;;12.82;7.28;;;15.60;99.90;;;;;;6372192;22;20093;-91
2023/03/18 13:04:03;;;;;;;11.65;7.65;;;15.40;99.90;;;;;;6374256;22;20017;-85
2023/03/18 13:06:32;;;;;;;16.02;7.50;;;15.20;99.90;;;;;;6373984;22;20013;-86
2023/03/18 13:09:20;;;;;;;12.23;6.70;;;15.20;99.90;;;;;;6373710;22;20147;-92
2023/03/18 13:12:10;;;;;;;12.85;6.40;;;15.10;99.90;;;;;;6374240;22;20022;-88